sensor_id;sensor_type;location;lat;lon;timestamp;P1;durP1;ratioP1;P2;durP2;ratioP2
11839;SDS011;5979;50.800;4.904;2024-01-15T00:01:46;32.80;;;18.20;;
11839;SDS011;5979;50.800;4.904;2024-01-15T00:04:12;36.00;;;18.97;;
11839;SDS011;5979;50.800;4.904;2024-01-15T00:06:38;35.90;;;17.53;;
11839;SDS011;5979;50.800;4.904;2024-01-15T00:09:03;35.40;;;16.90;;
11839;SDS011;5979;50.800;4.904;2024-01-15T00:11:30;35.87;;;17.93;;
11839;SDS011;5979;50.800;4.904;2024-01-15T00:13:56;32.77;;;16.47;;
11839;SDS011;5979;50.800;4.904;2024-01-15T00:19:06;37.50;;;17.73;;
11839;SDS011;5979;50.800;4.904;2024-01-15T00:21:32;35.20;;;17.67;;
11839;SDS011;5979;50.800;4.904;2024-01-15T00:23:57;39.53;;;18.07;;
11839;SDS011;5979;50.800;4.904;2024-01-15T00:26:23;34.43;;;17.53;;
11839;SDS011;5979;50.800;4.904;2024-01-15T00:28:49;31.13;;;15.67;;
11839;SDS011;5979;50.800;4.904;2024-01-15T00:31:16;36.33;;;16.73;;
11839;SDS011;5979;50.800;4.904;2024-01-15T00:33:42;30.80;;;16.57;;
11839;SDS011;5979;50.800;4.904;2024-01-15T00:36:08;34.87;;;16.83;;
11839;SDS011;5979;50.800;4.904;2024-01-15T00:38:34;33.87;;;16.50;;
11839;SDS011;5979;50.800;4.904;2024-01-15T00:40:59;35.10;;;16.80;;
11839;SDS011;5979;50.800;4.904;2024-01-15T00:43:25;30.83;;;16.63;;
11839;SDS011;5979;50.800;4.904;2024-01-15T00:45:51;31.80;;;14.80;;
11839;SDS011;5979;50.800;4.904;2024-01-15T00:48:16;30.20;;;15.13;;
11839;SDS011;5979;50.800;4.904;2024-01-15T00:50:42;27.63;;;14.70;;
11839;SDS011;5979;50.800;4.904;2024-01-15T00:53:08;31.10;;;15.17;;
11839;SDS011;5979;50.800;4.904;2024-01-15T00:55:34;30.33;;;15.10;;
11839;SDS011;5979;50.800;4.904;2024-01-15T00:58:01;34.23;;;14.13;;
11839;SDS011;5979;50.800;4.904;2024-01-15T01:00:26;26.30;;;13.87;;
11839;SDS011;5979;50.800;4.904;2024-01-15T01:02:52;28.03;;;14.40;;
11839;SDS011;5979;50.800;4.904;2024-01-15T01:05:18;23.60;;;14.13;;
11839;SDS011;5979;50.800;4.904;2024-01-15T01:07:43;30.47;;;13.97;;
11839;SDS011;5979;50.800;4.904;2024-01-15T01:10:09;30.73;;;14.93;;
11839;SDS011;5979;50.800;4.904;2024-01-15T01:12:35;26.10;;;13.73;;
11839;SDS011;5979;50.800;4.904;2024-01-15T01:15:01;26.63;;;13.90;;
11839;SDS011;5979;50.800;4.904;2024-01-15T01:17:27;25.93;;;14.23;;
11839;SDS011;5979;50.800;4.904;2024-01-15T01:19:53;25.63;;;14.43;;
11839;SDS011;5979;50.800;4.904;2024-01-15T01:22:19;27.70;;;14.27;;
11839;SDS011;5979;50.800;4.904;2024-01-15T01:24:45;27.37;;;14.13;;
11839;SDS011;5979;50.800;4.904;2024-01-15T01:27:10;29.20;;;13.60;;
11839;SDS011;5979;50.800;4.904;2024-01-15T01:29:36;22.57;;;13.00;;
11839;SDS011;5979;50.800;4.904;2024-01-15T01:32:01;24.20;;;13.53;;
11839;SDS011;5979;50.800;4.904;2024-01-15T01:34:27;28.23;;;12.97;;
11839;SDS011;5979;50.800;4.904;2024-01-15T01:36:53;25.67;;;12.67;;
11839;SDS011;5979;50.800;4.904;2024-01-15T01:39:18;18.67;;;11.63;;
11839;SDS011;5979;50.800;4.904;2024-01-15T01:41:44;27.77;;;12.80;;
11839;SDS011;5979;50.800;4.904;2024-01-15T01:44:10;22.70;;;12.73;;
11839;SDS011;5979;50.800;4.904;2024-01-15T01:46:36;22.47;;;12.10;;
11839;SDS011;5979;50.800;4.904;2024-01-15T01:49:06;19.87;;;11.53;;
11839;SDS011;5979;50.800;4.904;2024-01-15T01:51:34;26.03;;;12.47;;
11839;SDS011;5979;50.800;4.904;2024-01-15T01:54:01;21.43;;;12.10;;
11839;SDS011;5979;50.800;4.904;2024-01-15T01:56:27;21.60;;;12.73;;
11839;SDS011;5979;50.800;4.904;2024-01-15T01:58:53;22.13;;;12.43;;
11839;SDS011;5979;50.800;4.904;2024-01-15T02:01:19;22.37;;;12.10;;
11839;SDS011;5979;50.800;4.904;2024-01-15T02:03:45;22.03;;;12.83;;
11839;SDS011;5979;50.800;4.904;2024-01-15T02:06:10;21.80;;;11.57;;
11839;SDS011;5979;50.800;4.904;2024-01-15T02:08:36;20.83;;;11.47;;
11839;SDS011;5979;50.800;4.904;2024-01-15T02:11:03;16.93;;;11.17;;
11839;SDS011;5979;50.800;4.904;2024-01-15T02:13:29;15.80;;;10.00;;
11839;SDS011;5979;50.800;4.904;2024-01-15T02:15:54;19.30;;;10.20;;
11839;SDS011;5979;50.800;4.904;2024-01-15T02:18:20;16.53;;;10.10;;
11839;SDS011;5979;50.800;4.904;2024-01-15T02:20:45;18.27;;;10.80;;
11839;SDS011;5979;50.800;4.904;2024-01-15T02:23:14;16.77;;;11.10;;
11839;SDS011;5979;50.800;4.904;2024-01-15T02:25:44;13.90;;;9.33;;
11839;SDS011;5979;50.800;4.904;2024-01-15T02:28:12;17.13;;;10.05;;
11839;SDS011;5979;50.800;4.904;2024-01-15T02:30:40;17.90;;;10.37;;
11839;SDS011;5979;50.800;4.904;2024-01-15T02:33:07;15.73;;;9.57;;
11839;SDS011;5979;50.800;4.904;2024-01-15T02:35:34;20.00;;;10.33;;
11839;SDS011;5979;50.800;4.904;2024-01-15T02:38:03;17.90;;;10.20;;
11839;SDS011;5979;50.800;4.904;2024-01-15T02:40:29;18.83;;;10.27;;
11839;SDS011;5979;50.800;4.904;2024-01-15T02:42:55;15.77;;;10.93;;
11839;SDS011;5979;50.800;4.904;2024-01-15T02:45:21;17.73;;;10.50;;
11839;SDS011;5979;50.800;4.904;2024-01-15T02:47:47;17.83;;;10.23;;
11839;SDS011;5979;50.800;4.904;2024-01-15T02:50:13;18.33;;;11.07;;
11839;SDS011;5979;50.800;4.904;2024-01-15T02:52:39;17.07;;;9.80;;
11839;SDS011;5979;50.800;4.904;2024-01-15T02:55:06;12.70;;;9.25;;
11839;SDS011;5979;50.800;4.904;2024-01-15T02:57:32;13.83;;;9.80;;
11839;SDS011;5979;50.800;4.904;2024-01-15T02:59:58;14.67;;;9.33;;
11839;SDS011;5979;50.800;4.904;2024-01-15T03:02:24;16.47;;;9.03;;
11839;SDS011;5979;50.800;4.904;2024-01-15T03:04:49;16.07;;;8.80;;
11839;SDS011;5979;50.800;4.904;2024-01-15T03:07:15;13.47;;;9.10;;
11839;SDS011;5979;50.800;4.904;2024-01-15T03:09:41;16.40;;;9.13;;
11839;SDS011;5979;50.800;4.904;2024-01-15T03:12:07;14.07;;;8.80;;
11839;SDS011;5979;50.800;4.904;2024-01-15T03:14:33;15.27;;;9.93;;
11839;SDS011;5979;50.800;4.904;2024-01-15T03:16:58;12.30;;;9.33;;
11839;SDS011;5979;50.800;4.904;2024-01-15T03:19:25;13.40;;;8.50;;
11839;SDS011;5979;50.800;4.904;2024-01-15T03:21:51;16.43;;;9.17;;
11839;SDS011;5979;50.800;4.904;2024-01-15T03:24:17;14.07;;;8.77;;
11839;SDS011;5979;50.800;4.904;2024-01-15T03:26:43;12.97;;;7.70;;
11839;SDS011;5979;50.800;4.904;2024-01-15T03:29:08;14.63;;;8.53;;
11839;SDS011;5979;50.800;4.904;2024-01-15T03:31:34;12.10;;;7.60;;
11839;SDS011;5979;50.800;4.904;2024-01-15T03:34:00;11.23;;;7.40;;
11839;SDS011;5979;50.800;4.904;2024-01-15T03:36:26;11.47;;;7.73;;
11839;SDS011;5979;50.800;4.904;2024-01-15T03:38:51;13.87;;;7.67;;
11839;SDS011;5979;50.800;4.904;2024-01-15T03:41:17;10.33;;;7.30;;
11839;SDS011;5979;50.800;4.904;2024-01-15T03:43:43;11.90;;;7.50;;
11839;SDS011;5979;50.800;4.904;2024-01-15T03:46:08;14.13;;;8.10;;
11839;SDS011;5979;50.800;4.904;2024-01-15T03:48:34;12.77;;;8.10;;
11839;SDS011;5979;50.800;4.904;2024-01-15T03:50:59;14.20;;;8.87;;
11839;SDS011;5979;50.800;4.904;2024-01-15T03:53:25;12.70;;;8.53;;
11839;SDS011;5979;50.800;4.904;2024-01-15T03:55:51;14.20;;;9.07;;
11839;SDS011;5979;50.800;4.904;2024-01-15T03:58:17;18.30;;;8.80;;
11839;SDS011;5979;50.800;4.904;2024-01-15T04:00:43;16.57;;;9.80;;
11839;SDS011;5979;50.800;4.904;2024-01-15T04:03:09;15.00;;;9.37;;
11839;SDS011;5979;50.800;4.904;2024-01-15T04:08:26;18.23;;;10.70;;
11839;SDS011;5979;50.800;4.904;2024-01-15T04:10:52;18.07;;;10.20;;
11839;SDS011;5979;50.800;4.904;2024-01-15T04:13:18;18.80;;;11.30;;
11839;SDS011;5979;50.800;4.904;2024-01-15T04:15:43;20.07;;;11.87;;
11839;SDS011;5979;50.800;4.904;2024-01-15T04:18:09;20.83;;;11.37;;
11839;SDS011;5979;50.800;4.904;2024-01-15T04:20:35;24.67;;;13.07;;
11839;SDS011;5979;50.800;4.904;2024-01-15T04:23:00;22.13;;;13.17;;
11839;SDS011;5979;50.800;4.904;2024-01-15T04:25:26;20.60;;;12.83;;
11839;SDS011;5979;50.800;4.904;2024-01-15T04:27:52;23.13;;;13.13;;
11839;SDS011;5979;50.800;4.904;2024-01-15T04:30:17;26.10;;;13.20;;
11839;SDS011;5979;50.800;4.904;2024-01-15T04:32:43;22.00;;;13.00;;
11839;SDS011;5979;50.800;4.904;2024-01-15T04:35:09;28.70;;;13.73;;
11839;SDS011;5979;50.800;4.904;2024-01-15T04:37:34;25.60;;;14.27;;
11839;SDS011;5979;50.800;4.904;2024-01-15T04:40:00;25.50;;;14.70;;
11839;SDS011;5979;50.800;4.904;2024-01-15T04:42:26;27.63;;;14.40;;
11839;SDS011;5979;50.800;4.904;2024-01-15T04:44:51;25.53;;;13.80;;
11839;SDS011;5979;50.800;4.904;2024-01-15T04:47:17;26.43;;;14.23;;
11839;SDS011;5979;50.800;4.904;2024-01-15T04:49:42;22.57;;;13.90;;
11839;SDS011;5979;50.800;4.904;2024-01-15T04:52:08;30.53;;;16.30;;
11839;SDS011;5979;50.800;4.904;2024-01-15T04:54:35;30.83;;;14.77;;
11839;SDS011;5979;50.800;4.904;2024-01-15T04:57:01;29.23;;;14.77;;
11839;SDS011;5979;50.800;4.904;2024-01-15T04:59:27;27.50;;;15.57;;
11839;SDS011;5979;50.800;4.904;2024-01-15T05:01:54;26.43;;;14.47;;
11839;SDS011;5979;50.800;4.904;2024-01-15T05:04:20;27.40;;;14.70;;
11839;SDS011;5979;50.800;4.904;2024-01-15T05:06:46;25.77;;;13.70;;
11839;SDS011;5979;50.800;4.904;2024-01-15T05:09:11;26.60;;;14.10;;
11839;SDS011;5979;50.800;4.904;2024-01-15T05:11:38;23.63;;;13.47;;
11839;SDS011;5979;50.800;4.904;2024-01-15T05:14:04;21.03;;;13.67;;
11839;SDS011;5979;50.800;4.904;2024-01-15T05:16:30;23.23;;;13.93;;
11839;SDS011;5979;50.800;4.904;2024-01-15T05:18:56;25.93;;;14.27;;
11839;SDS011;5979;50.800;4.904;2024-01-15T05:24:06;24.83;;;14.00;;
11839;SDS011;5979;50.800;4.904;2024-01-15T05:26:33;22.40;;;13.77;;
11839;SDS011;5979;50.800;4.904;2024-01-15T05:28:58;22.93;;;13.50;;
11839;SDS011;5979;50.800;4.904;2024-01-15T05:31:24;24.90;;;14.07;;
11839;SDS011;5979;50.800;4.904;2024-01-15T05:33:50;22.37;;;13.37;;
11839;SDS011;5979;50.800;4.904;2024-01-15T05:36:15;28.37;;;14.37;;
11839;SDS011;5979;50.800;4.904;2024-01-15T05:38:41;23.70;;;13.67;;
11839;SDS011;5979;50.800;4.904;2024-01-15T05:41:07;22.60;;;13.63;;
11839;SDS011;5979;50.800;4.904;2024-01-15T05:43:32;21.83;;;13.20;;
11839;SDS011;5979;50.800;4.904;2024-01-15T05:45:58;22.40;;;13.13;;
11839;SDS011;5979;50.800;4.904;2024-01-15T05:48:24;19.63;;;11.63;;
11839;SDS011;5979;50.800;4.904;2024-01-15T05:50:50;17.70;;;11.60;;
11839;SDS011;5979;50.800;4.904;2024-01-15T05:53:15;17.03;;;10.57;;
11839;SDS011;5979;50.800;4.904;2024-01-15T05:55:41;17.53;;;10.77;;
11839;SDS011;5979;50.800;4.904;2024-01-15T05:58:06;17.23;;;10.63;;
11839;SDS011;5979;50.800;4.904;2024-01-15T06:00:32;19.70;;;11.53;;
11839;SDS011;5979;50.800;4.904;2024-01-15T06:03:00;18.80;;;11.03;;
11839;SDS011;5979;50.800;4.904;2024-01-15T06:05:26;16.87;;;10.60;;
11839;SDS011;5979;50.800;4.904;2024-01-15T06:07:51;18.00;;;10.63;;
11839;SDS011;5979;50.800;4.904;2024-01-15T06:10:17;15.93;;;9.93;;
11839;SDS011;5979;50.800;4.904;2024-01-15T06:12:43;12.83;;;8.83;;
11839;SDS011;5979;50.800;4.904;2024-01-15T06:15:09;13.37;;;7.53;;
11839;SDS011;5979;50.800;4.904;2024-01-15T06:17:35;11.20;;;7.07;;
11839;SDS011;5979;50.800;4.904;2024-01-15T06:20:01;9.07;;;6.37;;
11839;SDS011;5979;50.800;4.904;2024-01-15T06:22:28;9.73;;;6.03;;
11839;SDS011;5979;50.800;4.904;2024-01-15T06:24:54;8.00;;;5.77;;
11839;SDS011;5979;50.800;4.904;2024-01-15T06:27:20;9.17;;;6.07;;
11839;SDS011;5979;50.800;4.904;2024-01-15T06:29:46;8.13;;;6.60;;
11839;SDS011;5979;50.800;4.904;2024-01-15T06:32:12;9.60;;;7.00;;
11839;SDS011;5979;50.800;4.904;2024-01-15T06:34:38;9.90;;;6.47;;
11839;SDS011;5979;50.800;4.904;2024-01-15T06:37:04;10.40;;;6.50;;
11839;SDS011;5979;50.800;4.904;2024-01-15T06:39:30;9.77;;;6.07;;
11839;SDS011;5979;50.800;4.904;2024-01-15T06:41:55;8.23;;;5.43;;
11839;SDS011;5979;50.800;4.904;2024-01-15T06:44:21;9.97;;;5.30;;
11839;SDS011;5979;50.800;4.904;2024-01-15T06:46:47;9.90;;;5.73;;
11839;SDS011;5979;50.800;4.904;2024-01-15T06:49:12;11.00;;;6.17;;
11839;SDS011;5979;50.800;4.904;2024-01-15T06:51:38;6.63;;;5.70;;
11839;SDS011;5979;50.800;4.904;2024-01-15T06:54:04;9.20;;;6.60;;
11839;SDS011;5979;50.800;4.904;2024-01-15T06:56:31;8.00;;;5.87;;
11839;SDS011;5979;50.800;4.904;2024-01-15T06:58:56;15.53;;;7.13;;
11839;SDS011;5979;50.800;4.904;2024-01-15T07:01:22;6.70;;;5.80;;
11839;SDS011;5979;50.800;4.904;2024-01-15T07:03:48;9.30;;;5.20;;
11839;SDS011;5979;50.800;4.904;2024-01-15T07:06:14;7.40;;;5.80;;
11839;SDS011;5979;50.800;4.904;2024-01-15T07:08:40;7.27;;;5.30;;
11839;SDS011;5979;50.800;4.904;2024-01-15T07:11:06;8.47;;;4.93;;
11839;SDS011;5979;50.800;4.904;2024-01-15T07:13:32;7.73;;;4.23;;
11839;SDS011;5979;50.800;4.904;2024-01-15T07:15:58;7.23;;;4.77;;
11839;SDS011;5979;50.800;4.904;2024-01-15T07:18:24;7.17;;;4.33;;
11839;SDS011;5979;50.800;4.904;2024-01-15T07:20:50;6.47;;;4.00;;
11839;SDS011;5979;50.800;4.904;2024-01-15T07:23:16;5.43;;;3.70;;
11839;SDS011;5979;50.800;4.904;2024-01-15T07:25:42;6.33;;;4.10;;
11839;SDS011;5979;50.800;4.904;2024-01-15T07:28:08;5.90;;;3.37;;
11839;SDS011;5979;50.800;4.904;2024-01-15T07:30:34;4.17;;;3.53;;
11839;SDS011;5979;50.800;4.904;2024-01-15T07:33:00;3.73;;;3.40;;
11839;SDS011;5979;50.800;4.904;2024-01-15T07:35:26;8.03;;;3.93;;
11839;SDS011;5979;50.800;4.904;2024-01-15T07:37:51;4.37;;;3.70;;
11839;SDS011;5979;50.800;4.904;2024-01-15T07:40:17;4.23;;;3.90;;
11839;SDS011;5979;50.800;4.904;2024-01-15T07:42:43;4.90;;;3.73;;
11839;SDS011;5979;50.800;4.904;2024-01-15T07:45:09;5.33;;;4.40;;
11839;SDS011;5979;50.800;4.904;2024-01-15T07:47:35;7.87;;;4.77;;
11839;SDS011;5979;50.800;4.904;2024-01-15T07:50:01;5.23;;;4.77;;
11839;SDS011;5979;50.800;4.904;2024-01-15T07:52:27;6.93;;;4.77;;
11839;SDS011;5979;50.800;4.904;2024-01-15T07:54:52;10.93;;;5.10;;
11839;SDS011;5979;50.800;4.904;2024-01-15T07:57:18;8.60;;;6.03;;
11839;SDS011;5979;50.800;4.904;2024-01-15T07:59:44;6.80;;;5.67;;
11839;SDS011;5979;50.800;4.904;2024-01-15T08:02:09;6.60;;;5.67;;
11839;SDS011;5979;50.800;4.904;2024-01-15T08:04:36;6.73;;;6.03;;
11839;SDS011;5979;50.800;4.904;2024-01-15T08:07:03;7.30;;;5.53;;
11839;SDS011;5979;50.800;4.904;2024-01-15T08:09:30;10.80;;;5.80;;
11839;SDS011;5979;50.800;4.904;2024-01-15T08:11:56;9.60;;;6.37;;
11839;SDS011;5979;50.800;4.904;2024-01-15T08:14:22;9.60;;;6.13;;
11839;SDS011;5979;50.800;4.904;2024-01-15T08:16:47;8.77;;;7.53;;
11839;SDS011;5979;50.800;4.904;2024-01-15T08:19:13;11.30;;;7.53;;
11839;SDS011;5979;50.800;4.904;2024-01-15T08:21:39;12.77;;;8.50;;
11839;SDS011;5979;50.800;4.904;2024-01-15T08:24:05;10.73;;;7.90;;
11839;SDS011;5979;50.800;4.904;2024-01-15T08:26:31;9.87;;;7.63;;
11839;SDS011;5979;50.800;4.904;2024-01-15T08:28:57;8.53;;;7.23;;
11839;SDS011;5979;50.800;4.904;2024-01-15T08:31:23;8.67;;;7.63;;
11839;SDS011;5979;50.800;4.904;2024-01-15T08:33:49;10.07;;;7.30;;
11839;SDS011;5979;50.800;4.904;2024-01-15T08:36:14;12.70;;;7.80;;
11839;SDS011;5979;50.800;4.904;2024-01-15T08:38:40;12.30;;;7.93;;
11839;SDS011;5979;50.800;4.904;2024-01-15T08:41:06;8.90;;;7.23;;
11839;SDS011;5979;50.800;4.904;2024-01-15T08:43:33;10.47;;;7.40;;
11839;SDS011;5979;50.800;4.904;2024-01-15T08:45:59;8.13;;;7.17;;
11839;SDS011;5979;50.800;4.904;2024-01-15T08:48:25;11.63;;;7.47;;
11839;SDS011;5979;50.800;4.904;2024-01-15T08:50:52;9.07;;;7.17;;
11839;SDS011;5979;50.800;4.904;2024-01-15T08:53:19;15.33;;;6.57;;
11839;SDS011;5979;50.800;4.904;2024-01-15T08:55:45;8.27;;;5.83;;
11839;SDS011;5979;50.800;4.904;2024-01-15T08:58:11;8.77;;;6.70;;
11839;SDS011;5979;50.800;4.904;2024-01-15T09:00:37;10.13;;;6.37;;
11839;SDS011;5979;50.800;4.904;2024-01-15T09:03:03;10.87;;;6.07;;
11839;SDS011;5979;50.800;4.904;2024-01-15T09:05:29;6.57;;;5.50;;
11839;SDS011;5979;50.800;4.904;2024-01-15T09:07:55;8.40;;;5.30;;
11839;SDS011;5979;50.800;4.904;2024-01-15T09:10:21;6.60;;;4.73;;
11839;SDS011;5979;50.800;4.904;2024-01-15T09:12:46;8.07;;;5.17;;
11839;SDS011;5979;50.800;4.904;2024-01-15T09:15:14;7.95;;;4.68;;
11839;SDS011;5979;50.800;4.904;2024-01-15T09:17:39;6.83;;;4.73;;
11839;SDS011;5979;50.800;4.904;2024-01-15T09:20:05;5.85;;;4.35;;
11839;SDS011;5979;50.800;4.904;2024-01-15T09:22:32;8.95;;;4.50;;
11839;SDS011;5979;50.800;4.904;2024-01-15T09:24:58;8.77;;;4.27;;
11839;SDS011;5979;50.800;4.904;2024-01-15T09:27:24;3.75;;;3.40;;
11839;SDS011;5979;50.800;4.904;2024-01-15T09:29:51;6.20;;;4.28;;
11839;SDS011;5979;50.800;4.904;2024-01-15T09:32:17;7.20;;;3.92;;
11839;SDS011;5979;50.800;4.904;2024-01-15T09:34:43;5.57;;;3.63;;
11839;SDS011;5979;50.800;4.904;2024-01-15T09:37:11;4.95;;;3.00;;
11839;SDS011;5979;50.800;4.904;2024-01-15T09:39:37;4.78;;;3.20;;
11839;SDS011;5979;50.800;4.904;2024-01-15T09:42:03;4.57;;;3.13;;
11839;SDS011;5979;50.800;4.904;2024-01-15T09:44:29;3.95;;;2.80;;
11839;SDS011;5979;50.800;4.904;2024-01-15T09:46:57;8.15;;;2.97;;
11839;SDS011;5979;50.800;4.904;2024-01-15T09:49:23;3.88;;;2.92;;
11839;SDS011;5979;50.800;4.904;2024-01-15T09:51:49;4.15;;;2.85;;
11839;SDS011;5979;50.800;4.904;2024-01-15T09:54:15;6.63;;;3.08;;
11839;SDS011;5979;50.800;4.904;2024-01-15T09:56:51;10.15;;;2.92;;
11839;SDS011;5979;50.800;4.904;2024-01-15T09:59:17;4.55;;;2.40;;
11839;SDS011;5979;50.800;4.904;2024-01-15T10:01:44;4.45;;;2.40;;
11839;SDS011;5979;50.800;4.904;2024-01-15T10:04:13;4.18;;;2.22;;
11839;SDS011;5979;50.800;4.904;2024-01-15T10:06:45;8.38;;;2.55;;
11839;SDS011;5979;50.800;4.904;2024-01-15T10:09:14;5.88;;;2.65;;
11839;SDS011;5979;50.800;4.904;2024-01-15T10:11:43;2.83;;;2.53;;
11839;SDS011;5979;50.800;4.904;2024-01-15T10:14:10;4.00;;;2.08;;
11839;SDS011;5979;50.800;4.904;2024-01-15T10:16:39;2.67;;;2.00;;
11839;SDS011;5979;50.800;4.904;2024-01-15T10:19:05;5.57;;;2.63;;
11839;SDS011;5979;50.800;4.904;2024-01-15T10:21:32;3.83;;;2.13;;
11839;SDS011;5979;50.800;4.904;2024-01-15T10:24:01;10.07;;;2.60;;
11839;SDS011;5979;50.800;4.904;2024-01-15T10:26:28;2.60;;;1.70;;
11839;SDS011;5979;50.800;4.904;2024-01-15T10:28:54;2.45;;;1.65;;
11839;SDS011;5979;50.800;4.904;2024-01-15T10:31:20;5.30;;;1.98;;
11839;SDS011;5979;50.800;4.904;2024-01-15T10:33:49;5.28;;;1.80;;
11839;SDS011;5979;50.800;4.904;2024-01-15T10:36:16;3.90;;;1.75;;
11839;SDS011;5979;50.800;4.904;2024-01-15T10:38:46;2.47;;;1.85;;
11839;SDS011;5979;50.800;4.904;2024-01-15T10:41:11;4.32;;;1.77;;
11839;SDS011;5979;50.800;4.904;2024-01-15T10:43:37;3.40;;;1.67;;
11839;SDS011;5979;50.800;4.904;2024-01-15T10:46:05;3.17;;;1.73;;
11839;SDS011;5979;50.800;4.904;2024-01-15T10:48:31;5.25;;;2.22;;
11839;SDS011;5979;50.800;4.904;2024-01-15T10:51:00;7.03;;;2.20;;
11839;SDS011;5979;50.800;4.904;2024-01-15T10:53:35;2.30;;;1.80;;
11839;SDS011;5979;50.800;4.904;2024-01-15T10:56:04;3.47;;;1.88;;
11839;SDS011;5979;50.800;4.904;2024-01-15T10:58:31;3.63;;;1.58;;
11839;SDS011;5979;50.800;4.904;2024-01-15T11:00:58;6.55;;;1.88;;
11839;SDS011;5979;50.800;4.904;2024-01-15T11:03:24;4.22;;;1.80;;
11839;SDS011;5979;50.800;4.904;2024-01-15T11:05:50;5.80;;;1.90;;
11839;SDS011;5979;50.800;4.904;2024-01-15T11:08:18;4.75;;;2.17;;
11839;SDS011;5979;50.800;4.904;2024-01-15T11:10:48;5.32;;;2.03;;
11839;SDS011;5979;50.800;4.904;2024-01-15T11:13:39;5.22;;;1.92;;
11839;SDS011;5979;50.800;4.904;2024-01-15T11:16:07;4.55;;;1.88;;
11839;SDS011;5979;50.800;4.904;2024-01-15T11:18:37;4.30;;;1.48;;
11839;SDS011;5979;50.800;4.904;2024-01-15T11:28:52;4.95;;;2.08;;
11839;SDS011;5979;50.800;4.904;2024-01-15T11:31:18;3.67;;;1.70;;
11839;SDS011;5979;50.800;4.904;2024-01-15T11:33:49;3.22;;;1.83;;
11839;SDS011;5979;50.800;4.904;2024-01-15T11:36:15;4.15;;;2.22;;
11839;SDS011;5979;50.800;4.904;2024-01-15T11:38:41;6.22;;;2.50;;
11839;SDS011;5979;50.800;4.904;2024-01-15T11:41:13;4.45;;;2.00;;
11839;SDS011;5979;50.800;4.904;2024-01-15T11:43:42;3.72;;;1.70;;
11839;SDS011;5979;50.800;4.904;2024-01-15T11:46:11;3.53;;;1.50;;
11839;SDS011;5979;50.800;4.904;2024-01-15T11:48:43;4.07;;;1.95;;
11839;SDS011;5979;50.800;4.904;2024-01-15T11:51:12;5.57;;;1.75;;
11839;SDS011;5979;50.800;4.904;2024-01-15T11:53:48;6.72;;;1.80;;
11839;SDS011;5979;50.800;4.904;2024-01-15T11:56:17;3.72;;;1.67;;
11839;SDS011;5979;50.800;4.904;2024-01-15T11:58:47;3.85;;;1.73;;
11839;SDS011;5979;50.800;4.904;2024-01-15T12:01:15;4.57;;;1.77;;
11839;SDS011;5979;50.800;4.904;2024-01-15T12:03:41;3.38;;;1.80;;
11839;SDS011;5979;50.800;4.904;2024-01-15T12:06:07;2.50;;;1.73;;
11839;SDS011;5979;50.800;4.904;2024-01-15T12:08:34;2.88;;;1.50;;
11839;SDS011;5979;50.800;4.904;2024-01-15T12:11:00;2.40;;;1.80;;
11839;SDS011;5979;50.800;4.904;2024-01-15T12:13:36;3.20;;;1.50;;
11839;SDS011;5979;50.800;4.904;2024-01-15T12:16:01;3.25;;;1.55;;
11839;SDS011;5979;50.800;4.904;2024-01-15T12:18:29;2.70;;;1.52;;
11839;SDS011;5979;50.800;4.904;2024-01-15T12:20:55;5.88;;;1.90;;
11839;SDS011;5979;50.800;4.904;2024-01-15T12:23:20;3.03;;;1.58;;
11839;SDS011;5979;50.800;4.904;2024-01-15T12:25:46;3.20;;;1.50;;
11839;SDS011;5979;50.800;4.904;2024-01-15T12:28:12;3.00;;;1.48;;
11839;SDS011;5979;50.800;4.904;2024-01-15T12:30:38;4.38;;;1.85;;
11839;SDS011;5979;50.800;4.904;2024-01-15T12:33:05;4.88;;;2.03;;
11839;SDS011;5979;50.800;4.904;2024-01-15T12:35:31;1.98;;;1.42;;
11839;SDS011;5979;50.800;4.904;2024-01-15T12:37:59;1.67;;;1.40;;
11839;SDS011;5979;50.800;4.904;2024-01-15T12:40:27;3.17;;;1.40;;
11839;SDS011;5979;50.800;4.904;2024-01-15T12:42:53;4.05;;;1.38;;
11839;SDS011;5979;50.800;4.904;2024-01-15T12:45:19;2.78;;;1.67;;
11839;SDS011;5979;50.800;4.904;2024-01-15T12:47:45;2.78;;;1.88;;
11839;SDS011;5979;50.800;4.904;2024-01-15T12:50:12;2.35;;;1.13;;
11839;SDS011;5979;50.800;4.904;2024-01-15T12:52:40;3.25;;;1.50;;
11839;SDS011;5979;50.800;4.904;2024-01-15T12:55:06;3.03;;;1.30;;
11839;SDS011;5979;50.800;4.904;2024-01-15T12:57:34;3.33;;;1.70;;
11839;SDS011;5979;50.800;4.904;2024-01-15T13:00:00;2.38;;;1.65;;
11839;SDS011;5979;50.800;4.904;2024-01-15T13:02:26;1.90;;;1.70;;
11839;SDS011;5979;50.800;4.904;2024-01-15T13:04:52;4.00;;;1.45;;
11839;SDS011;5979;50.800;4.904;2024-01-15T13:07:19;5.25;;;1.73;;
11839;SDS011;5979;50.800;4.904;2024-01-15T13:09:44;4.30;;;1.67;;
11839;SDS011;5979;50.800;4.904;2024-01-15T13:12:10;3.85;;;2.00;;
11839;SDS011;5979;50.800;4.904;2024-01-15T13:14:36;5.72;;;1.88;;
11839;SDS011;5979;50.800;4.904;2024-01-15T13:17:02;3.70;;;1.67;;
11839;SDS011;5979;50.800;4.904;2024-01-15T13:19:28;5.13;;;1.90;;
11839;SDS011;5979;50.800;4.904;2024-01-15T13:21:54;4.28;;;2.00;;
11839;SDS011;5979;50.800;4.904;2024-01-15T13:24:23;4.22;;;1.67;;
11839;SDS011;5979;50.800;4.904;2024-01-15T13:26:49;4.05;;;2.20;;
11839;SDS011;5979;50.800;4.904;2024-01-15T13:29:15;5.25;;;2.08;;
11839;SDS011;5979;50.800;4.904;2024-01-15T13:31:40;4.90;;;2.05;;
11839;SDS011;5979;50.800;4.904;2024-01-15T13:34:06;5.15;;;2.03;;
11839;SDS011;5979;50.800;4.904;2024-01-15T13:36:32;3.55;;;2.17;;
11839;SDS011;5979;50.800;4.904;2024-01-15T13:38:58;2.50;;;1.70;;
11839;SDS011;5979;50.800;4.904;2024-01-15T13:41:24;2.70;;;1.40;;
11839;SDS011;5979;50.800;4.904;2024-01-15T13:43:52;1.30;;;1.20;;
11839;SDS011;5979;50.800;4.904;2024-01-15T13:46:28;2.88;;;1.55;;
11839;SDS011;5979;50.800;4.904;2024-01-15T13:48:58;2.10;;;1.03;;
11839;SDS011;5979;50.800;4.904;2024-01-15T13:51:24;2.78;;;1.08;;
11839;SDS011;5979;50.800;4.904;2024-01-15T13:53:50;1.63;;;1.40;;
11839;SDS011;5979;50.800;4.904;2024-01-15T13:56:16;2.10;;;1.07;;
11839;SDS011;5979;50.800;4.904;2024-01-15T13:58:42;1.23;;;1.00;;
11839;SDS011;5979;50.800;4.904;2024-01-15T14:01:08;1.63;;;0.77;;
11839;SDS011;5979;50.800;4.904;2024-01-15T14:03:34;1.67;;;1.30;;
11839;SDS011;5979;50.800;4.904;2024-01-15T14:06:00;1.13;;;1.03;;
11839;SDS011;5979;50.800;4.904;2024-01-15T14:08:28;2.33;;;1.77;;
11839;SDS011;5979;50.800;4.904;2024-01-15T14:10:54;1.67;;;1.30;;
11839;SDS011;5979;50.800;4.904;2024-01-15T14:13:22;1.20;;;1.10;;
11839;SDS011;5979;50.800;4.904;2024-01-15T14:15:47;1.27;;;1.17;;
11839;SDS011;5979;50.800;4.904;2024-01-15T14:18:15;2.87;;;1.20;;
11839;SDS011;5979;50.800;4.904;2024-01-15T14:20:41;1.07;;;1.07;;
11839;SDS011;5979;50.800;4.904;2024-01-15T14:23:08;1.00;;;0.90;;
11839;SDS011;5979;50.800;4.904;2024-01-15T14:25:34;3.10;;;1.63;;
11839;SDS011;5979;50.800;4.904;2024-01-15T14:27:59;1.30;;;1.17;;
11839;SDS011;5979;50.800;4.904;2024-01-15T14:30:25;1.33;;;1.10;;
11839;SDS011;5979;50.800;4.904;2024-01-15T14:32:51;4.63;;;1.50;;
11839;SDS011;5979;50.800;4.904;2024-01-15T14:35:16;2.30;;;0.70;;
11839;SDS011;5979;50.800;4.904;2024-01-15T14:37:42;0.80;;;0.80;;
11839;SDS011;5979;50.800;4.904;2024-01-15T14:40:08;4.20;;;1.17;;
11839;SDS011;5979;50.800;4.904;2024-01-15T14:42:35;1.70;;;0.87;;
11839;SDS011;5979;50.800;4.904;2024-01-15T14:45:01;2.87;;;1.03;;
11839;SDS011;5979;50.800;4.904;2024-01-15T14:47:36;0.90;;;0.80;;
11839;SDS011;5979;50.800;4.904;2024-01-15T14:52:47;2.43;;;0.90;;
11839;SDS011;5979;50.800;4.904;2024-01-15T14:55:12;1.10;;;0.87;;
11839;SDS011;5979;50.800;4.904;2024-01-15T14:57:38;2.43;;;0.93;;
11839;SDS011;5979;50.800;4.904;2024-01-15T15:00:05;0.77;;;0.77;;
11839;SDS011;5979;50.800;4.904;2024-01-15T15:02:33;1.53;;;0.83;;
11839;SDS011;5979;50.800;4.904;2024-01-15T15:05:00;1.20;;;1.10;;